sensor_id;sensor_type;location;lat;lon;timestamp;temperature;humidity
14699;DHT22;7439;50.804;4.602;2022-08-21T00:00:25;12.10;99.90
14699;DHT22;7439;50.804;4.602;2022-08-21T00:02:55;12.10;99.90
14699;DHT22;7439;50.804;4.602;2022-08-21T00:05:23;12.00;99.90
14699;DHT22;7439;50.804;4.602;2022-08-21T00:07:50;12.00;99.90
14699;DHT22;7439;50.804;4.602;2022-08-21T00:10:19;12.00;99.90
14699;DHT22;7439;50.804;4.602;2022-08-21T00:12:46;12.00;99.90
14699;DHT22;7439;50.804;4.602;2022-08-21T00:15:19;11.90;99.90
14699;DHT22;7439;50.804;4.602;2022-08-21T00:17:46;11.90;99.90
14699;DHT22;7439;50.804;4.602;2022-08-21T00:20:15;11.90;99.90
14699;DHT22;7439;50.804;4.602;2022-08-21T00:22:43;11.90;99.90
14699;DHT22;7439;50.804;4.602;2022-08-21T00:25:11;11.90;1.00
14699;DHT22;7439;50.804;4.602;2022-08-21T00:27:38;11.80;1.00
14699;DHT22;7439;50.804;4.602;2022-08-21T00:30:25;11.80;1.00
14699;DHT22;7439;50.804;4.602;2022-08-21T00:32:54;11.70;1.00
14699;DHT22;7439;50.804;4.602;2022-08-21T00:35:25;11.70;1.00
14699;DHT22;7439;50.804;4.602;2022-08-21T00:37:54;11.70;1.00
14699;DHT22;7439;50.804;4.602;2022-08-21T00:40:27;11.70;1.00
14699;DHT22;7439;50.804;4.602;2022-08-21T00:42:54;11.70;1.00
14699;DHT22;7439;50.804;4.602;2022-08-21T00:45:22;11.70;1.00
14699;DHT22;7439;50.804;4.602;2022-08-21T00:47:51;11.80;1.00
14699;DHT22;7439;50.804;4.602;2022-08-21T00:50:21;11.80;1.00
14699;DHT22;7439;50.804;4.602;2022-08-21T00:52:49;11.70;1.00
14699;DHT22;7439;50.804;4.602;2022-08-21T00:55:18;11.70;1.00
14699;DHT22;7439;50.804;4.602;2022-08-21T00:57:51;11.60;1.00
14699;DHT22;7439;50.804;4.602;2022-08-21T01:00:21;11.50;1.00
14699;DHT22;7439;50.804;4.602;2022-08-21T01:02:51;11.50;1.00
14699;DHT22;7439;50.804;4.602;2022-08-21T01:05:18;11.40;1.00
14699;DHT22;7439;50.804;4.602;2022-08-21T01:07:46;11.40;1.00
14699;DHT22;7439;50.804;4.602;2022-08-21T01:10:13;11.40;1.00
14699;DHT22;7439;50.804;4.602;2022-08-21T01:12:41;11.30;1.00
14699;DHT22;7439;50.804;4.602;2022-08-21T01:15:09;11.30;1.00
14699;DHT22;7439;50.804;4.602;2022-08-21T01:17:37;11.40;1.00
14699;DHT22;7439;50.804;4.602;2022-08-21T01:20:09;11.40;1.00
14699;DHT22;7439;50.804;4.602;2022-08-21T01:22:39;11.40;1.00
14699;DHT22;7439;50.804;4.602;2022-08-21T01:25:08;11.40;1.00
14699;DHT22;7439;50.804;4.602;2022-08-21T01:27:35;11.30;1.00
14699;DHT22;7439;50.804;4.602;2022-08-21T01:30:09;11.30;1.00
14699;DHT22;7439;50.804;4.602;2022-08-21T01:32:37;11.30;1.00
14699;DHT22;7439;50.804;4.602;2022-08-21T01:35:05;11.30;5.20
14699;DHT22;7439;50.804;4.602;2022-08-21T01:37:33;11.20;20.30
14699;DHT22;7439;50.804;4.602;2022-08-21T01:40:03;11.20;33.20
14699;DHT22;7439;50.804;4.602;2022-08-21T01:42:30;11.20;53.60
14699;DHT22;7439;50.804;4.602;2022-08-21T01:44:58;11.10;64.70
14699;DHT22;7439;50.804;4.602;2022-08-21T01:47:25;11.10;80.10
14699;DHT22;7439;50.804;4.602;2022-08-21T01:49:52;11.10;94.30
14699;DHT22;7439;50.804;4.602;2022-08-21T01:52:19;11.00;99.80
14699;DHT22;7439;50.804;4.602;2022-08-21T01:54:46;11.00;99.90
14699;DHT22;7439;50.804;4.602;2022-08-21T01:57:15;11.00;99.90
14699;DHT22;7439;50.804;4.602;2022-08-21T01:59:43;11.00;99.90
14699;DHT22;7439;50.804;4.602;2022-08-21T02:02:10;10.90;99.90
14699;DHT22;7439;50.804;4.602;2022-08-21T02:04:37;10.90;99.90
14699;DHT22;7439;50.804;4.602;2022-08-21T02:07:04;10.90;99.90
14699;DHT22;7439;50.804;4.602;2022-08-21T02:09:32;10.90;99.90
14699;DHT22;7439;50.804;4.602;2022-08-21T02:12:00;10.90;99.90
14699;DHT22;7439;50.804;4.602;2022-08-21T02:14:28;10.90;99.90
14699;DHT22;7439;50.804;4.602;2022-08-21T02:16:55;10.90;99.90
14699;DHT22;7439;50.804;4.602;2022-08-21T02:19:23;10.80;99.90
14699;DHT22;7439;50.804;4.602;2022-08-21T02:21:50;10.80;99.90
14699;DHT22;7439;50.804;4.602;2022-08-21T02:24:16;10.80;99.90
14699;DHT22;7439;50.804;4.602;2022-08-21T02:26:44;10.70;99.90
14699;DHT22;7439;50.804;4.602;2022-08-21T02:29:11;10.70;99.90
14699;DHT22;7439;50.804;4.602;2022-08-21T02:31:39;10.70;99.90
14699;DHT22;7439;50.804;4.602;2022-08-21T02:34:06;10.70;99.90
14699;DHT22;7439;50.804;4.602;2022-08-21T02:36:34;10.60;99.90
14699;DHT22;7439;50.804;4.602;2022-08-21T02:39:01;10.60;99.90
14699;DHT22;7439;50.804;4.602;2022-08-21T02:41:28;10.60;99.90
14699;DHT22;7439;50.804;4.602;2022-08-21T02:43:55;10.60;99.90
14699;DHT22;7439;50.804;4.602;2022-08-21T02:46:22;10.50;99.90
14699;DHT22;7439;50.804;4.602;2022-08-21T02:48:51;10.50;99.90
14699;DHT22;7439;50.804;4.602;2022-08-21T02:51:19;10.50;99.90
14699;DHT22;7439;50.804;4.602;2022-08-21T02:53:48;10.40;99.90
14699;DHT22;7439;50.804;4.602;2022-08-21T02:56:18;10.40;99.90
14699;DHT22;7439;50.804;4.602;2022-08-21T02:58:48;10.40;99.90
14699;DHT22;7439;50.804;4.602;2022-08-21T03:01:17;10.40;99.90
14699;DHT22;7439;50.804;4.602;2022-08-21T03:03:47;10.40;1.00
14699;DHT22;7439;50.804;4.602;2022-08-21T03:06:19;10.30;1.00
14699;DHT22;7439;50.804;4.602;2022-08-21T03:08:47;10.30;1.00
14699;DHT22;7439;50.804;4.602;2022-08-21T03:11:14;10.30;1.00
14699;DHT22;7439;50.804;4.602;2022-08-21T03:13:42;10.30;1.00
14699;DHT22;7439;50.804;4.602;2022-08-21T03:16:09;10.30;1.00
14699;DHT22;7439;50.804;4.602;2022-08-21T03:18:37;10.30;1.00
14699;DHT22;7439;50.804;4.602;2022-08-21T03:21:04;10.30;1.00
14699;DHT22;7439;50.804;4.602;2022-08-21T03:23:33;10.30;1.00
14699;DHT22;7439;50.804;4.602;2022-08-21T03:26:00;10.30;1.00
14699;DHT22;7439;50.804;4.602;2022-08-21T03:28:27;10.30;1.00
14699;DHT22;7439;50.804;4.602;2022-08-21T03:30:54;10.20;1.00
14699;DHT22;7439;50.804;4.602;2022-08-21T03:33:22;10.20;1.00
14699;DHT22;7439;50.804;4.602;2022-08-21T03:35:56;10.20;1.00
14699;DHT22;7439;50.804;4.602;2022-08-21T03:38:27;10.30;1.00
14699;DHT22;7439;50.804;4.602;2022-08-21T03:40:56;10.30;1.00
14699;DHT22;7439;50.804;4.602;2022-08-21T03:43:23;10.30;1.00
14699;DHT22;7439;50.804;4.602;2022-08-21T03:45:50;10.30;1.00
14699;DHT22;7439;50.804;4.602;2022-08-21T03:48:18;10.30;1.00
14699;DHT22;7439;50.804;4.602;2022-08-21T03:50:45;10.30;1.00
14699;DHT22;7439;50.804;4.602;2022-08-21T03:53:16;10.30;1.00
14699;DHT22;7439;50.804;4.602;2022-08-21T03:55:43;10.30;1.00
14699;DHT22;7439;50.804;4.602;2022-08-21T03:58:12;10.20;1.00
14699;DHT22;7439;50.804;4.602;2022-08-21T04:00:39;10.20;1.00
14699;DHT22;7439;50.804;4.602;2022-08-21T04:03:06;10.10;1.00
14699;DHT22;7439;50.804;4.602;2022-08-21T04:05:33;10.10;1.00
14699;DHT22;7439;50.804;4.602;2022-08-21T04:08:03;10.10;1.00
14699;DHT22;7439;50.804;4.602;2022-08-21T04:10:33;10.10;1.00
14699;DHT22;7439;50.804;4.602;2022-08-21T04:13:01;10.00;7.80
14699;DHT22;7439;50.804;4.602;2022-08-21T04:15:30;10.10;29.80
14699;DHT22;7439;50.804;4.602;2022-08-21T04:17:57;10.10;73.70
14699;DHT22;7439;50.804;4.602;2022-08-21T04:20:25;10.10;86.20
14699;DHT22;7439;50.804;4.602;2022-08-21T04:22:53;10.00;99.10
14699;DHT22;7439;50.804;4.602;2022-08-21T04:25:22;10.00;99.90
14699;DHT22;7439;50.804;4.602;2022-08-21T04:27:49;10.00;99.90
14699;DHT22;7439;50.804;4.602;2022-08-21T04:30:17;10.00;99.90
14699;DHT22;7439;50.804;4.602;2022-08-21T04:32:46;10.00;99.90
14699;DHT22;7439;50.804;4.602;2022-08-21T04:35:15;10.00;99.90
14699;DHT22;7439;50.804;4.602;2022-08-21T04:37:42;10.00;99.90
14699;DHT22;7439;50.804;4.602;2022-08-21T04:40:11;10.00;99.90
14699;DHT22;7439;50.804;4.602;2022-08-21T04:42:42;10.00;99.90
14699;DHT22;7439;50.804;4.602;2022-08-21T04:45:16;10.00;99.90
14699;DHT22;7439;50.804;4.602;2022-08-21T04:47:48;10.00;99.90
14699;DHT22;7439;50.804;4.602;2022-08-21T04:50:17;10.00;99.90
14699;DHT22;7439;50.804;4.602;2022-08-21T04:52:44;10.00;99.90
14699;DHT22;7439;50.804;4.602;2022-08-21T04:55:13;10.00;99.90
14699;DHT22;7439;50.804;4.602;2022-08-21T04:57:40;10.00;99.90
14699;DHT22;7439;50.804;4.602;2022-08-21T05:00:08;10.10;99.90
14699;DHT22;7439;50.804;4.602;2022-08-21T05:02:39;10.20;99.90
14699;DHT22;7439;50.804;4.602;2022-08-21T05:05:09;10.20;1.00
14699;DHT22;7439;50.804;4.602;2022-08-21T05:07:37;10.20;1.00
14699;DHT22;7439;50.804;4.602;2022-08-21T05:10:05;10.30;1.00
14699;DHT22;7439;50.804;4.602;2022-08-21T05:12:34;10.40;1.00
14699;DHT22;7439;50.804;4.602;2022-08-21T05:15:02;10.50;1.00
14699;DHT22;7439;50.804;4.602;2022-08-21T05:17:29;10.50;1.00
14699;DHT22;7439;50.804;4.602;2022-08-21T05:19:56;10.60;1.00
14699;DHT22;7439;50.804;4.602;2022-08-21T05:22:24;10.70;1.00
14699;DHT22;7439;50.804;4.602;2022-08-21T05:24:51;10.80;1.00
14699;DHT22;7439;50.804;4.602;2022-08-21T05:27:18;10.90;1.00
14699;DHT22;7439;50.804;4.602;2022-08-21T05:29:46;10.90;1.00
14699;DHT22;7439;50.804;4.602;2022-08-21T05:32:14;11.00;16.00
14699;DHT22;7439;50.804;4.602;2022-08-21T05:34:41;11.10;10.90
14699;DHT22;7439;50.804;4.602;2022-08-21T05:37:10;11.20;23.30
14699;DHT22;7439;50.804;4.602;2022-08-21T05:39:39;11.30;36.20
14699;DHT22;7439;50.804;4.602;2022-08-21T05:42:07;11.40;15.70
14699;DHT22;7439;50.804;4.602;2022-08-21T05:44:34;11.40;1.00
14699;DHT22;7439;50.804;4.602;2022-08-21T05:47:03;11.40;1.00
14699;DHT22;7439;50.804;4.602;2022-08-21T05:49:31;11.40;1.00
14699;DHT22;7439;50.804;4.602;2022-08-21T05:51:58;11.50;1.00
14699;DHT22;7439;50.804;4.602;2022-08-21T05:54:26;11.50;1.00
14699;DHT22;7439;50.804;4.602;2022-08-21T05:56:55;11.60;1.00
14699;DHT22;7439;50.804;4.602;2022-08-21T05:59:22;11.70;1.00
14699;DHT22;7439;50.804;4.602;2022-08-21T06:01:49;11.90;1.00
14699;DHT22;7439;50.804;4.602;2022-08-21T06:04:18;12.00;1.00
14699;DHT22;7439;50.804;4.602;2022-08-21T06:06:45;12.20;1.00
14699;DHT22;7439;50.804;4.602;2022-08-21T06:09:13;12.30;1.00
14699;DHT22;7439;50.804;4.602;2022-08-21T06:11:40;12.40;99.90
14699;DHT22;7439;50.804;4.602;2022-08-21T06:14:08;12.50;99.90
14699;DHT22;7439;50.804;4.602;2022-08-21T06:16:35;12.70;99.90
14699;DHT22;7439;50.804;4.602;2022-08-21T06:19:03;12.80;33.10
14699;DHT22;7439;50.804;4.602;2022-08-21T06:21:30;13.00;1.00
14699;DHT22;7439;50.804;4.602;2022-08-21T06:23:57;13.10;1.00
14699;DHT22;7439;50.804;4.602;2022-08-21T06:26:24;13.30;1.00
14699;DHT22;7439;50.804;4.602;2022-08-21T06:28:51;13.40;99.90
14699;DHT22;7439;50.804;4.602;2022-08-21T06:31:22;13.60;99.90
14699;DHT22;7439;50.804;4.602;2022-08-21T06:33:50;13.80;1.00
14699;DHT22;7439;50.804;4.602;2022-08-21T06:36:17;13.90;1.00
14699;DHT22;7439;50.804;4.602;2022-08-21T06:38:45;14.00;1.00
14699;DHT22;7439;50.804;4.602;2022-08-21T06:41:12;14.20;99.90
14699;DHT22;7439;50.804;4.602;2022-08-21T06:43:39;14.40;99.90
14699;DHT22;7439;50.804;4.602;2022-08-21T06:46:06;14.50;1.00
14699;DHT22;7439;50.804;4.602;2022-08-21T06:48:35;14.60;1.00
14699;DHT22;7439;50.804;4.602;2022-08-21T06:51:02;14.80;99.90
14699;DHT22;7439;50.804;4.602;2022-08-21T06:53:29;14.90;99.90
14699;DHT22;7439;50.804;4.602;2022-08-21T06:55:57;15.10;1.10
14699;DHT22;7439;50.804;4.602;2022-08-21T06:58:24;15.30;1.00
14699;DHT22;7439;50.804;4.602;2022-08-21T07:00:51;15.40;1.00
14699;DHT22;7439;50.804;4.602;2022-08-21T07:03:20;15.60;1.00
14699;DHT22;7439;50.804;4.602;2022-08-21T07:05:49;15.60;99.90
14699;DHT22;7439;50.804;4.602;2022-08-21T07:08:16;15.60;99.90
14699;DHT22;7439;50.804;4.602;2022-08-21T07:10:44;15.90;99.90
14699;DHT22;7439;50.804;4.602;2022-08-21T07:13:11;16.00;99.90
14699;DHT22;7439;50.804;4.602;2022-08-21T07:15:38;16.10;99.90
14699;DHT22;7439;50.804;4.602;2022-08-21T07:18:06;16.30;94.40
14699;DHT22;7439;50.804;4.602;2022-08-21T07:20:33;16.50;35.90
14699;DHT22;7439;50.804;4.602;2022-08-21T07:23:04;16.70;1.00
14699;DHT22;7439;50.804;4.602;2022-08-21T07:25:32;16.90;1.00
14699;DHT22;7439;50.804;4.602;2022-08-21T07:27:59;17.20;1.00
14699;DHT22;7439;50.804;4.602;2022-08-21T07:30:26;17.40;1.00
14699;DHT22;7439;50.804;4.602;2022-08-21T07:32:53;17.50;99.90
14699;DHT22;7439;50.804;4.602;2022-08-21T07:35:22;17.70;1.00
14699;DHT22;7439;50.804;4.602;2022-08-21T07:37:49;17.90;99.90
14699;DHT22;7439;50.804;4.602;2022-08-21T07:40:18;18.10;99.90
14699;DHT22;7439;50.804;4.602;2022-08-21T07:42:47;18.40;99.90
14699;DHT22;7439;50.804;4.602;2022-08-21T07:45:18;18.30;99.90
14699;DHT22;7439;50.804;4.602;2022-08-21T07:47:45;18.10;99.90
14699;DHT22;7439;50.804;4.602;2022-08-21T07:50:13;18.00;99.90
14699;DHT22;7439;50.804;4.602;2022-08-21T07:52:42;18.10;99.90
14699;DHT22;7439;50.804;4.602;2022-08-21T07:55:14;18.10;99.90
14699;DHT22;7439;50.804;4.602;2022-08-21T07:57:43;18.40;99.90
14699;DHT22;7439;50.804;4.602;2022-08-21T08:00:13;18.70;99.90
14699;DHT22;7439;50.804;4.602;2022-08-21T08:02:43;19.10;99.90
14699;DHT22;7439;50.804;4.602;2022-08-21T08:05:11;19.50;99.90
14699;DHT22;7439;50.804;4.602;2022-08-21T08:07:39;19.80;99.90
14699;DHT22;7439;50.804;4.602;2022-08-21T08:10:07;19.90;99.90
14699;DHT22;7439;50.804;4.602;2022-08-21T08:12:36;19.90;99.90
14699;DHT22;7439;50.804;4.602;2022-08-21T08:15:08;19.80;99.90
14699;DHT22;7439;50.804;4.602;2022-08-21T08:17:35;20.00;99.90
14699;DHT22;7439;50.804;4.602;2022-08-21T08:20:04;20.00;99.90
14699;DHT22;7439;50.804;4.602;2022-08-21T08:22:31;20.20;56.50
14699;DHT22;7439;50.804;4.602;2022-08-21T08:24:58;20.40;56.80
14699;DHT22;7439;50.804;4.602;2022-08-21T08:27:25;20.50;74.90
14699;DHT22;7439;50.804;4.602;2022-08-21T08:29:53;20.50;1.00
14699;DHT22;7439;50.804;4.602;2022-08-21T08:32:22;20.30;1.00
14699;DHT22;7439;50.804;4.602;2022-08-21T08:34:49;20.20;1.00
14699;DHT22;7439;50.804;4.602;2022-08-21T08:37:18;20.10;19.20
14699;DHT22;7439;50.804;4.602;2022-08-21T08:39:46;20.40;16.70
14699;DHT22;7439;50.804;4.602;2022-08-21T08:42:15;20.30;1.00
14699;DHT22;7439;50.804;4.602;2022-08-21T08:44:43;20.30;10.70
14699;DHT22;7439;50.804;4.602;2022-08-21T08:47:13;20.40;11.40
14699;DHT22;7439;50.804;4.602;2022-08-21T08:49:49;20.70;11.60
14699;DHT22;7439;50.804;4.602;2022-08-21T08:52:22;21.40;1.00
14699;DHT22;7439;50.804;4.602;2022-08-21T08:55:00;22.10;1.00
14699;DHT22;7439;50.804;4.602;2022-08-21T08:57:27;22.60;1.00
14699;DHT22;7439;50.804;4.602;2022-08-21T08:59:58;23.20;1.00
14699;DHT22;7439;50.804;4.602;2022-08-21T09:02:25;22.80;1.00
14699;DHT22;7439;50.804;4.602;2022-08-21T09:04:55;22.80;1.00
14699;DHT22;7439;50.804;4.602;2022-08-21T09:07:31;23.00;1.00
14699;DHT22;7439;50.804;4.602;2022-08-21T09:10:10;23.50;1.00
14699;DHT22;7439;50.804;4.602;2022-08-21T09:12:49;24.40;1.00
14699;DHT22;7439;50.804;4.602;2022-08-21T09:15:26;25.30;1.00
14699;DHT22;7439;50.804;4.602;2022-08-21T09:18:13;24.90;1.00
14699;DHT22;7439;50.804;4.602;2022-08-21T09:20:53;25.10;1.00
14699;DHT22;7439;50.804;4.602;2022-08-21T09:23:32;24.60;1.00
14699;DHT22;7439;50.804;4.602;2022-08-21T09:26:06;24.30;1.00
14699;DHT22;7439;50.804;4.602;2022-08-21T09:28:35;24.30;1.00
14699;DHT22;7439;50.804;4.602;2022-08-21T09:31:05;24.80;1.00
14699;DHT22;7439;50.804;4.602;2022-08-21T09:33:32;24.20;1.00
14699;DHT22;7439;50.804;4.602;2022-08-21T09:36:01;24.50;1.00
14699;DHT22;7439;50.804;4.602;2022-08-21T09:38:31;25.00;1.00
14699;DHT22;7439;50.804;4.602;2022-08-21T09:41:02;25.90;1.00
14699;DHT22;7439;50.804;4.602;2022-08-21T09:43:30;25.10;1.00
14699;DHT22;7439;50.804;4.602;2022-08-21T09:46:08;25.20;1.00
14699;DHT22;7439;50.804;4.602;2022-08-21T09:48:42;25.50;1.00
14699;DHT22;7439;50.804;4.602;2022-08-21T09:51:13;26.10;1.00
14699;DHT22;7439;50.804;4.602;2022-08-21T09:53:44;26.20;1.00
14699;DHT22;7439;50.804;4.602;2022-08-21T09:56:25;26.20;1.00
14699;DHT22;7439;50.804;4.602;2022-08-21T09:59:19;25.60;1.00
14699;DHT22;7439;50.804;4.602;2022-08-21T10:01:49;26.40;1.00
14699;DHT22;7439;50.804;4.602;2022-08-21T10:04:24;27.10;1.00
14699;DHT22;7439;50.804;4.602;2022-08-21T10:06:52;27.20;1.00
14699;DHT22;7439;50.804;4.602;2022-08-21T10:09:20;26.20;1.00
14699;DHT22;7439;50.804;4.602;2022-08-21T10:11:55;25.70;1.00
14699;DHT22;7439;50.804;4.602;2022-08-21T10:14:35;25.50;1.00
14699;DHT22;7439;50.804;4.602;2022-08-21T10:17:14;25.50;1.00
14699;DHT22;7439;50.804;4.602;2022-08-21T10:19:50;25.60;1.00
14699;DHT22;7439;50.804;4.602;2022-08-21T10:22:31;25.60;1.00
14699;DHT22;7439;50.804;4.602;2022-08-21T10:25:06;25.70;1.00
14699;DHT22;7439;50.804;4.602;2022-08-21T10:27:41;25.50;1.00
14699;DHT22;7439;50.804;4.602;2022-08-21T10:30:13;25.00;1.00
14699;DHT22;7439;50.804;4.602;2022-08-21T10:33:02;25.10;1.00
14699;DHT22;7439;50.804;4.602;2022-08-21T10:35:36;25.50;1.00
14699;DHT22;7439;50.804;4.602;2022-08-21T10:38:34;25.50;1.00
14699;DHT22;7439;50.804;4.602;2022-08-21T10:41:09;26.60;1.00
14699;DHT22;7439;50.804;4.602;2022-08-21T10:43:48;28.00;1.00
14699;DHT22;7439;50.804;4.602;2022-08-21T10:46:33;28.10;1.00
14699;DHT22;7439;50.804;4.602;2022-08-21T10:49:13;28.00;1.00
14699;DHT22;7439;50.804;4.602;2022-08-21T10:51:51;28.20;1.00
14699;DHT22;7439;50.804;4.602;2022-08-21T10:54:29;28.90;1.00
14699;DHT22;7439;50.804;4.602;2022-08-21T10:57:04;28.70;1.00
14699;DHT22;7439;50.804;4.602;2022-08-21T10:59:37;28.40;1.00
14699;DHT22;7439;50.804;4.602;2022-08-21T11:02:14;27.40;1.00
14699;DHT22;7439;50.804;4.602;2022-08-21T11:04:50;27.20;1.00
14699;DHT22;7439;50.804;4.602;2022-08-21T11:07:21;27.50;1.00
14699;DHT22;7439;50.804;4.602;2022-08-21T11:09:51;27.20;1.00
14699;DHT22;7439;50.804;4.602;2022-08-21T11:12:24;28.10;1.00
14699;DHT22;7439;50.804;4.602;2022-08-21T11:14:58;29.00;1.00
14699;DHT22;7439;50.804;4.602;2022-08-21T11:17:32;28.80;1.00
14699;DHT22;7439;50.804;4.602;2022-08-21T11:20:08;29.00;1.00
14699;DHT22;7439;50.804;4.602;2022-08-21T11:22:41;29.70;1.00
14699;DHT22;7439;50.804;4.602;2022-08-21T11:25:15;29.90;1.00
14699;DHT22;7439;50.804;4.602;2022-08-21T11:27:48;30.10;1.00
14699;DHT22;7439;50.804;4.602;2022-08-21T11:30:16;31.70;1.00
14699;DHT22;7439;50.804;4.602;2022-08-21T11:32:53;31.60;1.00
14699;DHT22;7439;50.804;4.602;2022-08-21T11:35:33;30.70;1.00
14699;DHT22;7439;50.804;4.602;2022-08-21T11:38:16;30.00;1.00
14699;DHT22;7439;50.804;4.602;2022-08-21T11:41:11;29.40;1.00
14699;DHT22;7439;50.804;4.602;2022-08-21T11:43:41;28.70;1.00
14699;DHT22;7439;50.804;4.602;2022-08-21T11:46:20;28.70;1.00
14699;DHT22;7439;50.804;4.602;2022-08-21T11:49:02;29.00;1.00
14699;DHT22;7439;50.804;4.602;2022-08-21T11:51:35;27.50;1.00
14699;DHT22;7439;50.804;4.602;2022-08-21T11:54:08;26.50;1.00
14699;DHT22;7439;50.804;4.602;2022-08-21T11:56:39;25.40;1.00
14699;DHT22;7439;50.804;4.602;2022-08-21T11:59:11;24.80;1.00
14699;DHT22;7439;50.804;4.602;2022-08-21T12:01:43;24.80;1.00
14699;DHT22;7439;50.804;4.602;2022-08-21T12:04:21;25.10;1.00
14699;DHT22;7439;50.804;4.602;2022-08-21T12:06:48;25.70;1.00
14699;DHT22;7439;50.804;4.602;2022-08-21T12:09:32;26.60;1.00
14699;DHT22;7439;50.804;4.602;2022-08-21T12:12:04;27.50;1.00
14699;DHT22;7439;50.804;4.602;2022-08-21T12:14:40;27.40;1.00
14699;DHT22;7439;50.804;4.602;2022-08-21T12:17:16;28.10;1.00
14699;DHT22;7439;50.804;4.602;2022-08-21T12:19:44;28.90;1.00
14699;DHT22;7439;50.804;4.602;2022-08-21T12:22:13;30.00;1.00
14699;DHT22;7439;50.804;4.602;2022-08-21T12:24:41;31.60;1.00
14699;DHT22;7439;50.804;4.602;2022-08-21T12:27:29;32.00;1.00
14699;DHT22;7439;50.804;4.602;2022-08-21T12:30:00;29.80;1.00
14699;DHT22;7439;50.804;4.602;2022-08-21T12:32:29;28.60;1.00
14699;DHT22;7439;50.804;4.602;2022-08-21T12:35:02;27.70;1.00
14699;DHT22;7439;50.804;4.602;2022-08-21T12:37:39;29.00;1.00
14699;DHT22;7439;50.804;4.602;2022-08-21T12:40:18;30.00;1.00
14699;DHT22;7439;50.804;4.602;2022-08-21T12:42:49;30.00;1.00
14699;DHT22;7439;50.804;4.602;2022-08-21T12:45:19;29.20;1.00
14699;DHT22;7439;50.804;4.602;2022-08-21T12:47:49;28.20;1.00
14699;DHT22;7439;50.804;4.602;2022-08-21T12:50:20;29.10;1.00
14699;DHT22;7439;50.804;4.602;2022-08-21T12:52:54;30.10;1.00
14699;DHT22;7439;50.804;4.602;2022-08-21T12:55:27;30.70;1.00
14699;DHT22;7439;50.804;4.602;2022-08-21T12:57:56;31.90;1.00
14699;DHT22;7439;50.804;4.602;2022-08-21T13:00:25;31.80;1.00
14699;DHT22;7439;50.804;4.602;2022-08-21T13:02:53;31.10;1.00
14699;DHT22;7439;50.804;4.602;2022-08-21T13:05:28;29.50;1.00
14699;DHT22;7439;50.804;4.602;2022-08-21T13:07:56;29.10;1.00
14699;DHT22;7439;50.804;4.602;2022-08-21T13:10:26;29.40;1.00
14699;DHT22;7439;50.804;4.602;2022-08-21T13:12:57;29.30;1.00
14699;DHT22;7439;50.804;4.602;2022-08-21T13:15:28;30.20;1.00
14699;DHT22;7439;50.804;4.602;2022-08-21T13:17:56;30.40;1.00
14699;DHT22;7439;50.804;4.602;2022-08-21T13:20:29;31.10;1.00
14699;DHT22;7439;50.804;4.602;2022-08-21T13:22:57;31.50;1.00
14699;DHT22;7439;50.804;4.602;2022-08-21T13:25:27;32.30;1.00
14699;DHT22;7439;50.804;4.602;2022-08-21T13:28:04;32.70;1.00
14699;DHT22;7439;50.804;4.602;2022-08-21T13:30:31;32.20;1.00
14699;DHT22;7439;50.804;4.602;2022-08-21T13:33:01;30.80;1.00
14699;DHT22;7439;50.804;4.602;2022-08-21T13:35:31;29.30;1.00
14699;DHT22;7439;50.804;4.602;2022-08-21T13:38:03;28.10;1.00
14699;DHT22;7439;50.804;4.602;2022-08-21T13:40:37;27.20;1.00
14699;DHT22;7439;50.804;4.602;2022-08-21T13:43:12;26.50;1.00
14699;DHT22;7439;50.804;4.602;2022-08-21T13:45:44;26.20;1.00
14699;DHT22;7439;50.804;4.602;2022-08-21T13:48:11;26.00;1.00
14699;DHT22;7439;50.804;4.602;2022-08-21T13:50:41;25.90;1.00
14699;DHT22;7439;50.804;4.602;2022-08-21T13:53:20;25.70;1.00
14699;DHT22;7439;50.804;4.602;2022-08-21T13:55:48;25.60;1.00
14699;DHT22;7439;50.804;4.602;2022-08-21T13:58:25;25.40;1.00
14699;DHT22;7439;50.804;4.602;2022-08-21T14:00:53;25.30;1.00
14699;DHT22;7439;50.804;4.602;2022-08-21T14:03:32;25.20;1.00
14699;DHT22;7439;50.804;4.602;2022-08-21T14:06:00;25.10;1.00
14699;DHT22;7439;50.804;4.602;2022-08-21T14:08:33;25.10;1.00
14699;DHT22;7439;50.804;4.602;2022-08-21T14:11:04;25.00;1.00
14699;DHT22;7439;50.804;4.602;2022-08-21T14:13:42;25.00;1.00
14699;DHT22;7439;50.804;4.602;2022-08-21T14:16:16;24.90;1.00
14699;DHT22;7439;50.804;4.602;2022-08-21T14:18:48;24.70;1.00
14699;DHT22;7439;50.804;4.602;2022-08-21T14:21:28;24.50;1.00
14699;DHT22;7439;50.804;4.602;2022-08-21T14:24:10;24.60;1.00
14699;DHT22;7439;50.804;4.602;2022-08-21T14:26:46;24.70;1.00
14699;DHT22;7439;50.804;4.602;2022-08-21T14:29:22;24.60;1.00
14699;DHT22;7439;50.804;4.602;2022-08-21T14:31:55;24.30;1.00
14699;DHT22;7439;50.804;4.602;2022-08-21T14:34:24;24.30;1.00
14699;DHT22;7439;50.804;4.602;2022-08-21T14:36:52;24.40;1.00
14699;DHT22;7439;50.804;4.602;2022-08-21T14:39:19;24.30;1.00
14699;DHT22;7439;50.804;4.602;2022-08-21T14:41:47;24.10;1.00
14699;DHT22;7439;50.804;4.602;2022-08-21T14:44:16;24.20;1.00
14699;DHT22;7439;50.804;4.602;2022-08-21T14:46:46;24.30;1.00
14699;DHT22;7439;50.804;4.602;2022-08-21T14:49:13;24.40;1.00
14699;DHT22;7439;50.804;4.602;2022-08-21T14:51:40;24.60;1.00
14699;DHT22;7439;50.804;4.602;2022-08-21T14:54:07;24.50;1.00
14699;DHT22;7439;50.804;4.602;2022-08-21T14:56:35;24.60;1.00
14699;DHT22;7439;50.804;4.602;2022-08-21T14:59:04;24.40;1.00
14699;DHT22;7439;50.804;4.602;2022-08-21T15:01:36;24.60;1.00
14699;DHT22;7439;50.804;4.602;2022-08-21T15:04:04;24.70;1.00
14699;DHT22;7439;50.804;4.602;2022-08-21T15:06:31;24.70;1.00
14699;DHT22;7439;50.804;4.602;2022-08-21T15:08:58;24.80;1.00
14699;DHT22;7439;50.804;4.602;2022-08-21T15:11:27;24.50;1.00
14699;DHT22;7439;50.804;4.602;2022-08-21T15:13:58;24.30;1.00
14699;DHT22;7439;50.804;4.602;2022-08-21T15:16:27;24.10;1.00
14699;DHT22;7439;50.804;4.602;2022-08-21T15:18:56;24.10;1.00
14699;DHT22;7439;50.804;4.602;2022-08-21T15:21:23;24.20;1.00
14699;DHT22;7439;50.804;4.602;2022-08-21T15:23:50;24.20;1.00
14699;DHT22;7439;50.804;4.602;2022-08-21T15:26:17;24.30;1.00
14699;DHT22;7439;50.804;4.602;2022-08-21T15:28:44;24.40;1.00
14699;DHT22;7439;50.804;4.602;2022-08-21T15:31:11;24.30;1.00
14699;DHT22;7439;50.804;4.602;2022-08-21T15:33:38;24.30;1.00
14699;DHT22;7439;50.804;4.602;2022-08-21T15:36:07;24.30;1.00
14699;DHT22;7439;50.804;4.602;2022-08-21T15:38:34;24.30;1.00
14699;DHT22;7439;50.804;4.602;2022-08-21T15:41:02;24.10;1.00
14699;DHT22;7439;50.804;4.602;2022-08-21T15:43:32;24.00;1.00
14699;DHT22;7439;50.804;4.602;2022-08-21T15:46:01;23.70;1.00
